Time;durP1;ratioP1;P1;durP2;ratioP2;P2;SDS_P1;SDS_P2;PMS_P1;PMS_P2;Temp;Humidity;BMP_temperature;BMP_pressure;BME280_temperature;BME280_humidity;BME280_pressure;Samples;Min_cycle;Max_cycle;Signal;HPM_P1;HPM_P2
2022/06/05 00:00:27;;;;;;;15.40;6.43;;;10.10;99.90;;;;;;4770558;30;20032;-70
2022/06/05 00:03:08;;;;;;;14.65;7.40;;;10.20;99.90;;;;;;4770180;30;20039;-70
2022/06/05 00:05:46;;;;;;;11.43;6.60;;;10.10;99.90;;;;;;4770497;30;20027;-70
2022/06/05 00:08:39;;;;;;;11.88;7.07;;;10.40;99.90;;;;;;4770081;30;20545;-70
2022/06/05 00:11:07;;;;;;;18.40;7.38;;;10.30;99.90;;;;;;4770381;30;20048;-72
2022/06/05 00:13:37;;;;;;;15.80;7.20;;;10.50;99.90;;;;;;4768946;30;20028;-70
2022/06/05 00:16:04;;;;;;;12.32;6.13;;;10.40;99.90;;;;;;4770296;30;20350;-71
2022/06/05 00:18:36;;;;;;;14.35;6.22;;;10.40;99.90;;;;;;4760697;30;20106;-71
2022/06/05 00:21:03;;;;;;;12.55;6.13;;;10.40;99.90;;;;;;4768284;30;20024;-70
2022/06/05 00:23:28;;;;;;;8.13;4.90;;;10.40;99.90;;;;;;4770272;30;20055;-71
2022/06/05 00:26:12;;;;;;;11.73;4.93;;;10.50;99.90;;;;;;4770340;30;20062;-70
2022/06/05 00:28:43;;;;;;;9.60;4.50;;;10.50;99.90;;;;;;4769878;30;20439;-71
2022/06/05 00:31:30;;;;;;;10.90;5.30;;;10.50;99.90;;;;;;4770056;30;20032;-71
2022/06/05 00:33:57;;;;;;;10.93;5.00;;;10.50;99.90;;;;;;4769988;30;20028;-71
2022/06/05 00:37:00;;;;;;;7.65;4.68;;;10.60;99.90;;;;;;4770157;30;20097;-70
2022/06/05 00:39:47;;;;;;;10.00;5.57;;;10.70;99.90;;;;;;4769985;30;20035;-71
2022/06/05 00:42:19;;;;;;;11.52;5.50;;;10.70;99.90;;;;;;4781282;24;20502;-68
2022/06/05 00:44:52;;;;;;;8.35;4.85;;;10.80;99.90;;;;;;4764068;30;20027;-69
2022/06/05 00:47:24;;;;;;;11.05;5.72;;;10.80;99.90;;;;;;4768605;30;20027;-69
2022/06/05 00:50:09;;;;;;;9.18;4.78;;;10.90;99.90;;;;;;4769299;30;20032;-69
2022/06/05 00:52:37;;;;;;;9.38;5.03;;;10.90;99.90;;;;;;4769549;30;20036;-69
2022/06/05 00:55:04;;;;;;;9.52;4.65;;;11.00;99.90;;;;;;4768652;30;20027;-69
2022/06/05 00:57:33;;;;;;;9.77;5.35;;;11.00;99.90;;;;;;4769196;30;20110;-69
2022/06/05 01:00:01;;;;;;;6.13;4.13;;;11.00;99.90;;;;;;4768933;30;20054;-69
2022/06/05 01:02:29;;;;;;;12.35;5.60;;;11.00;99.90;;;;;;4753163;30;20089;-69
2022/06/05 01:04:55;;;;;;;8.57;5.03;;;11.10;99.90;;;;;;4769337;30;20118;-69
2022/06/05 01:07:21;;;;;;;11.57;6.00;;;11.00;99.90;;;;;;4769169;30;20109;-69
2022/06/05 01:09:49;;;;;;;6.22;4.15;;;11.00;99.90;;;;;;4767132;30;20043;-69
2022/06/05 01:12:24;;;;;;;8.40;4.07;;;11.10;99.90;;;;;;4768964;30;20056;-69
2022/06/05 01:15:06;;;;;;;9.32;5.70;;;11.10;99.90;;;;;;4769112;30;20035;-69
2022/06/05 01:17:39;;;;;;;8.23;3.78;;;11.10;99.90;;;;;;4769056;30;20074;-69
2022/06/05 01:20:26;;;;;;;9.25;5.80;;;11.00;99.90;;;;;;4769120;30;20020;-69
2022/06/05 01:23:44;;;;;;;12.85;5.90;;;11.10;99.90;;;;;;4761532;30;20064;-69
2022/06/05 01:26:21;;;;;;;10.68;6.57;;;11.10;99.90;;;;;;4753720;30;20557;-69
2022/06/05 01:28:53;;;;;;;8.13;4.32;;;11.00;99.90;;;;;;4768962;30;20096;-69
2022/06/05 01:31:30;;;;;;;12.07;5.72;;;11.00;99.90;;;;;;4769034;30;20089;-69
2022/06/05 01:34:36;;;;;;;16.60;7.22;;;11.00;99.90;;;;;;4768861;30;20044;-69
2022/06/05 01:37:20;;;;;;;11.82;5.82;;;11.00;99.90;;;;;;4761825;30;20056;-69
2022/06/05 01:39:58;;;;;;;8.02;4.78;;;11.00;99.90;;;;;;4766172;30;20062;-69
2022/06/05 01:42:30;;;;;;;8.32;5.78;;;10.90;99.90;;;;;;4768771;30;20048;-69
2022/06/05 01:45:00;;;;;;;13.32;6.25;;;10.90;99.90;;;;;;4763044;30;20043;-69
2022/06/05 01:47:32;;;;;;;;;;;11.00;99.90;;;;;;4751715;30;20040;-69
2022/06/05 01:50:38;;;;;;;9.60;4.60;;;11.00;99.90;;;;;;4761987;30;19913;-69
2022/06/05 01:53:27;;;;;;;10.65;5.45;;;10.90;99.90;;;;;;4758141;30;20047;-69
2022/06/05 01:56:00;;;;;;;8.55;5.07;;;10.90;99.90;;;;;;4763456;30;20049;-70
2022/06/05 01:58:40;;;;;;;9.63;6.15;;;11.00;99.90;;;;;;4760509;30;20047;-69
2022/06/05 02:01:14;;;;;;;13.50;6.38;;;11.00;99.90;;;;;;4763833;30;20051;-69
2022/06/05 02:03:45;;;;;;;11.98;6.57;;;11.00;99.90;;;;;;4768646;30;20081;-69
2022/06/05 02:06:15;;;;;;;9.43;4.75;;;10.90;99.90;;;;;;4757027;30;20033;-69
2022/06/05 02:08:46;;;;;;;9.18;4.68;;;11.00;99.90;;;;;;4767005;30;20028;-69
2022/06/05 02:11:18;;;;;;;11.32;5.35;;;11.00;99.90;;;;;;4770244;30;20173;-69
2022/06/05 02:13:44;;;;;;;10.60;5.00;;;11.00;99.90;;;;;;4759326;30;20028;-69
2022/06/05 02:16:10;;;;;;;9.52;4.70;;;11.00;99.90;;;;;;4754934;30;20085;-69
2022/06/05 02:18:36;;;;;;;10.68;6.07;;;11.10;99.90;;;;;;4763719;30;20465;-69
2022/06/05 02:21:03;;;;;;;10.77;5.50;;;11.00;99.90;;;;;;4761313;30;20043;-69
2022/06/05 02:23:33;;;;;;;12.00;6.97;;;11.10;99.90;;;;;;4762138;30;20497;-69
2022/06/05 02:26:02;;;;;;;11.90;5.53;;;11.10;99.90;;;;;;4753747;30;20392;-69
2022/06/05 02:28:27;;;;;;;13.60;5.90;;;11.10;99.90;;;;;;4770655;30;20035;-69
2022/06/05 02:31:19;;;;;;;14.45;6.00;;;11.10;99.90;;;;;;4771796;30;20067;-69
2022/06/05 02:34:08;;;;;;;11.98;6.13;;;11.10;99.90;;;;;;4758450;30;20036;-69
2022/06/05 02:36:43;;;;;;;14.20;5.85;;;11.10;99.90;;;;;;4761377;30;20485;-69
2022/06/05 02:39:24;;;;;;;11.98;5.22;;;11.20;99.90;;;;;;4771698;30;20027;-69
2022/06/05 02:42:19;;;;;;;8.07;5.10;;;11.20;99.90;;;;;;4755183;30;20101;-69
2022/06/05 02:45:02;;;;;;;13.60;6.45;;;11.20;99.90;;;;;;4757442;30;20034;-69
2022/06/05 02:47:47;;;;;;;12.50;5.28;;;11.20;99.90;;;;;;4762915;30;20116;-70
2022/06/05 02:50:31;;;;;;;14.10;7.05;;;11.20;99.90;;;;;;4771511;30;20083;-69
2022/06/05 02:53:03;;;;;;;11.57;6.28;;;11.20;99.90;;;;;;4765367;30;20039;-69
2022/06/05 02:55:29;;;;;;;14.20;7.10;;;11.20;99.90;;;;;;4771360;30;20047;-69
2022/06/05 02:57:56;;;;;;;11.30;5.82;;;11.20;99.90;;;;;;4769747;30;20020;-69
2022/06/05 03:00:25;;;;;;;7.90;4.50;;;11.20;99.90;;;;;;4771187;30;20423;-69
2022/06/05 03:05:36;;;;;;;12.20;6.28;;;11.30;99.90;;;;;;4759853;30;20286;-69
2022/06/05 03:08:02;;;;;;;13.07;6.78;;;11.30;99.90;;;;;;4759166;30;20035;-69
2022/06/05 03:10:28;;;;;;;12.63;6.18;;;11.30;99.90;;;;;;4771081;30;20032;-69
2022/06/05 03:12:54;;;;;;;7.63;4.68;;;11.30;99.90;;;;;;4769975;30;20028;-70
2022/06/05 03:15:20;;;;;;;15.00;7.10;;;11.40;99.90;;;;;;4771187;30;20038;-69
2022/06/05 03:17:52;;;;;;;13.07;6.03;;;11.40;99.90;;;;;;4767637;30;20066;-69
2022/06/05 03:20:18;;;;;;;7.72;4.55;;;11.50;99.90;;;;;;4768372;30;20451;-69
2022/06/05 03:22:44;;;;;;;13.38;7.18;;;11.50;99.90;;;;;;4761210;30;20040;-69
2022/06/05 03:25:14;;;;;;;10.55;5.78;;;11.50;99.90;;;;;;4770911;30;20043;-69
2022/06/05 03:27:40;;;;;;;15.73;7.47;;;11.50;99.90;;;;;;4762822;30;20044;-69
2022/06/05 03:30:06;;;;;;;11.10;4.72;;;11.60;99.90;;;;;;4764766;30;20408;-69
2022/06/05 03:32:32;;;;;;;9.38;5.10;;;11.70;99.90;;;;;;4770935;30;20115;-69
2022/06/05 03:34:57;;;;;;;14.48;6.18;;;11.70;99.90;;;;;;4770858;30;20091;-69
2022/06/05 03:37:23;;;;;;;10.25;4.75;;;11.60;99.90;;;;;;4770707;30;20388;-69
2022/06/05 03:39:49;;;;;;;14.98;6.00;;;11.70;99.90;;;;;;4768860;30;20734;-69
2022/06/05 03:42:15;;;;;;;7.38;4.28;;;11.70;99.90;;;;;;4758788;30;20127;-69
2022/06/05 03:44:42;;;;;;;9.05;4.82;;;11.80;99.90;;;;;;4760244;30;20032;-70
2022/06/05 03:47:09;;;;;;;11.10;5.93;;;11.80;99.90;;;;;;4754410;30;20028;-69
2022/06/05 03:49:35;;;;;;;11.38;5.07;;;11.80;99.90;;;;;;4770377;30;20043;-70
2022/06/05 03:52:03;;;;;;;12.57;6.07;;;11.90;99.90;;;;;;4765207;30;20043;-69
2022/06/05 03:54:28;;;;;;;11.18;5.78;;;11.90;99.90;;;;;;4759316;30;20028;-70
2022/06/05 03:56:54;;;;;;;13.90;7.75;;;11.90;99.90;;;;;;4768641;30;20039;-69
2022/06/05 03:59:20;;;;;;;13.40;7.10;;;12.00;99.90;;;;;;4765046;30;20044;-69
2022/06/05 04:01:45;;;;;;;10.55;4.95;;;12.00;99.90;;;;;;4760109;30;20112;-70
2022/06/05 04:04:11;;;;;;;10.55;5.50;;;12.00;99.90;;;;;;4766870;30;20076;-70
2022/06/05 04:06:36;;;;;;;11.02;5.88;;;12.00;99.90;;;;;;4763028;30;20031;-70
2022/06/05 04:09:06;;;;;;;16.83;5.30;;;12.10;99.90;;;;;;4768424;30;20385;-70
2022/06/05 04:11:33;;;;;;;12.80;6.43;;;12.10;99.90;;;;;;4770295;30;20035;-70
2022/06/05 04:13:59;;;;;;;11.23;5.22;;;12.10;99.90;;;;;;4768628;30;20063;-70
2022/06/05 04:16:27;;;;;;;12.43;6.57;;;12.20;99.90;;;;;;4752201;30;20114;-70
2022/06/05 04:18:53;;;;;;;13.25;6.55;;;12.20;99.90;;;;;;4767968;30;20031;-70
2022/06/05 04:21:22;;;;;;;14.68;6.10;;;12.30;99.20;;;;;;4770089;30;20549;-70
2022/06/05 04:23:48;;;;;;;16.23;6.95;;;12.30;92.90;;;;;;4766822;30;21174;-70
2022/06/05 04:26:16;;;;;;;7.90;4.57;;;12.40;80.70;;;;;;4764287;30;20039;-70
2022/06/05 04:28:42;;;;;;;13.77;6.80;;;12.50;62.50;;;;;;4767754;30;20122;-70
2022/06/05 04:31:25;;;;;;;19.23;7.30;;;12.70;13.40;;;;;;4759835;30;20036;-70
2022/06/05 04:33:58;;;;;;;8.23;4.93;;;12.70;13.40;;;;;;4758483;30;20035;-70
2022/06/05 04:36:24;;;;;;;14.45;6.18;;;12.60;25.60;;;;;;4762315;30;20039;-69
2022/06/05 04:38:51;;;;;;;17.08;7.97;;;12.70;24.20;;;;;;4753463;30;20412;-70
2022/06/05 04:41:18;;;;;;;13.75;6.10;;;12.60;28.00;;;;;;4767898;30;20480;-70
2022/06/05 04:43:44;;;;;;;15.10;7.18;;;12.70;20.20;;;;;;4760943;30;20055;-70
2022/06/05 04:46:10;;;;;;;12.50;6.82;;;12.80;17.40;;;;;;4767673;30;20028;-70
2022/06/05 04:48:36;;;;;;;13.63;6.22;;;12.80;1.00;;;;;;4756725;30;20381;-70
2022/06/05 04:51:07;;;;;;;17.38;8.00;;;12.90;1.00;;;;;;4769312;30;20101;-70
2022/06/05 04:53:33;;;;;;;15.15;7.75;;;13.00;1.00;;;;;;4769273;30;20032;-70
2022/06/05 04:56:06;;;;;;;16.75;8.07;;;13.20;1.00;;;;;;4769199;30;20059;-70
2022/06/05 04:58:32;;;;;;;17.92;8.43;;;13.30;1.00;;;;;;4764703;30;20040;-70
2022/06/05 05:00:58;;;;;;;14.77;7.40;;;13.50;1.00;;;;;;4768125;30;20054;-70
2022/06/05 05:03:24;;;;;;;14.38;7.07;;;13.90;1.00;;;;;;4769026;30;20039;-70
2022/06/05 05:05:50;;;;;;;12.98;6.80;;;14.70;99.90;;;;;;4766876;30;20036;-70
2022/06/05 05:08:15;;;;;;;14.32;6.03;;;15.50;99.90;;;;;;4768605;30;20036;-71
2022/06/05 05:10:48;;;;;;;11.13;5.53;;;15.70;99.90;;;;;;4760178;30;20134;-71
2022/06/05 05:13:14;;;;;;;12.70;6.05;;;16.00;99.90;;;;;;4764118;30;20032;-71
2022/06/05 05:15:39;;;;;;;10.63;5.93;;;15.70;99.90;;;;;;4764019;30;20414;-71
2022/06/05 05:18:05;;;;;;;10.00;5.05;;;16.00;99.90;;;;;;4769096;30;20032;-71
2022/06/05 05:20:30;;;;;;;7.20;4.28;;;15.70;99.90;;;;;;4763780;30;20112;-71
2022/06/05 05:22:56;;;;;;;11.85;6.20;;;15.30;99.90;;;;;;4769017;30;20599;-71
2022/06/05 05:25:22;;;;;;;11.02;5.80;;;15.50;99.90;;;;;;4761465;30;20081;-71
2022/06/05 05:27:47;;;;;;;12.35;6.85;;;15.40;99.90;;;;;;4759480;30;20024;-68
2022/06/05 05:30:14;;;;;;;7.75;4.70;;;15.60;99.90;;;;;;4767851;30;20045;-68
2022/06/05 05:32:39;;;;;;;10.38;5.30;;;15.70;99.90;;;;;;4761656;30;20051;-69
2022/06/05 05:35:06;;;;;;;9.68;4.85;;;15.60;99.90;;;;;;4766494;30;20086;-69
2022/06/05 05:37:32;;;;;;;14.38;6.50;;;15.40;99.90;;;;;;4751695;30;20059;-69
2022/06/05 05:42:48;;;;;;;11.52;6.30;;;15.50;99.90;;;;;;4765124;30;20121;-70
2022/06/05 05:45:14;;;;;;;10.85;5.18;;;15.60;99.90;;;;;;4764195;30;20069;-70
2022/06/05 05:47:39;;;;;;;13.85;7.18;;;15.40;99.90;;;;;;4761417;30;20374;-70
2022/06/05 05:50:11;;;;;;;10.25;5.45;;;15.50;99.90;;;;;;4768209;30;20036;-71
2022/06/05 05:52:37;;;;;;;9.23;6.15;;;15.50;99.90;;;;;;4763889;30;20038;-71
2022/06/05 05:55:05;;;;;;;12.82;6.00;;;15.40;99.90;;;;;;4767423;30;20481;-70
2022/06/05 05:57:31;;;;;;;11.32;6.25;;;15.60;99.90;;;;;;4768973;30;20028;-71
2022/06/05 05:59:56;;;;;;;10.68;4.95;;;15.60;99.90;;;;;;4763507;30;20508;-72
2022/06/05 06:02:23;;;;;;;6.95;3.42;;;15.70;99.90;;;;;;4766967;30;20085;-69
2022/06/05 06:04:50;;;;;;;11.77;6.72;;;15.60;99.90;;;;;;4760308;30;20525;-70
2022/06/05 06:07:17;;;;;;;14.82;7.03;;;15.80;99.90;;;;;;4772229;30;20070;-69
2022/06/05 06:09:43;;;;;;;9.50;5.28;;;15.70;99.90;;;;;;4772290;30;20063;-69
2022/06/05 06:12:10;;;;;;;9.30;5.07;;;15.80;99.90;;;;;;4772223;30;20067;-69
2022/06/05 06:14:37;;;;;;;6.15;4.28;;;15.90;99.90;;;;;;4772112;30;20047;-69
2022/06/05 06:17:04;;;;;;;12.35;6.75;;;15.90;99.90;;;;;;4766216;30;20496;-69
2022/06/05 06:19:30;;;;;;;11.85;6.65;;;16.50;99.90;;;;;;4770337;30;20047;-69
2022/06/05 06:21:55;;;;;;;9.00;5.13;;;16.60;99.90;;;;;;4772310;30;20489;-69
2022/06/05 06:24:21;;;;;;;10.77;4.90;;;16.20;99.90;;;;;;4771847;30;20039;-68
2022/06/05 06:26:46;;;;;;;12.90;6.72;;;16.00;99.90;;;;;;4771997;30;20035;-69
2022/06/05 06:29:12;;;;;;;9.63;7.10;;;16.10;99.90;;;;;;4771713;30;20055;-69
2022/06/05 06:31:39;;;;;;;10.18;6.47;;;15.90;99.90;;;;;;4770234;30;20032;-69
2022/06/05 06:34:06;;;;;;;9.90;6.07;;;15.70;99.90;;;;;;4771829;30;20020;-69
2022/06/05 06:36:32;;;;;;;9.98;4.85;;;15.80;99.90;;;;;;4771712;30;20028;-69
2022/06/05 06:38:58;;;;;;;10.48;6.90;;;15.80;99.90;;;;;;4769544;30;20153;-69
2022/06/05 06:41:31;;;;;;;10.88;6.03;;;16.00;99.90;;;;;;4770610;30;20114;-70
2022/06/05 06:43:56;;;;;;;9.93;6.07;;;16.20;99.90;;;;;;4737277;30;20103;-70
2022/06/05 06:46:22;;;;;;;8.90;6.25;;;16.20;99.90;;;;;;4753610;30;20695;-70
2022/06/05 06:48:48;;;;;;;11.93;6.38;;;16.40;99.90;;;;;;4753600;30;20433;-70
2022/06/05 06:51:16;;;;;;;13.93;7.30;;;16.50;99.90;;;;;;4751996;30;20375;-70
2022/06/05 06:53:43;;;;;;;10.15;6.80;;;16.90;99.90;;;;;;4752852;30;20534;-70
2022/06/05 06:56:12;;;;;;;12.63;7.80;;;16.80;99.90;;;;;;4749708;30;20024;-70
2022/06/05 06:58:39;;;;;;;13.07;6.65;;;17.30;99.90;;;;;;4750428;30;20052;-71
2022/06/05 07:01:04;;;;;;;12.82;6.50;;;17.80;99.90;;;;;;4753683;30;20125;-70
2022/06/05 07:03:30;;;;;;;12.63;7.47;;;18.20;99.90;;;;;;4753455;30;20066;-70
2022/06/05 07:05:56;;;;;;;9.93;6.90;;;18.30;99.90;;;;;;4753264;30;20036;-71
2022/06/05 07:08:22;;;;;;;12.68;6.43;;;17.80;99.90;;;;;;4753177;30;20036;-70
2022/06/05 07:10:47;;;;;;;9.55;6.95;;;17.80;99.90;;;;;;4752618;30;20035;-71
2022/06/05 07:13:13;;;;;;;9.02;5.97;;;18.10;99.90;;;;;;4752785;30;20039;-70
2022/06/05 07:15:39;;;;;;;12.70;6.85;;;18.50;99.90;;;;;;4750877;30;20034;-70
2022/06/05 07:18:07;;;;;;;11.63;6.68;;;19.20;99.90;;;;;;4750483;30;20039;-70
2022/06/05 07:20:38;;;;;;;7.43;6.00;;;19.30;91.80;;;;;;4741140;30;20029;-71
2022/06/05 07:23:04;;;;;;;8.88;5.57;;;19.10;87.60;;;;;;4753448;30;20032;-71
2022/06/05 07:25:31;;;;;;;13.25;6.65;;;19.50;85.20;;;;;;4749070;30;20033;-71
2022/06/05 07:27:57;;;;;;;11.63;6.80;;;19.60;59.60;;;;;;4751037;30;20032;-71
2022/06/05 07:30:23;;;;;;;11.75;7.97;;;19.50;62.90;;;;;;4752084;30;20043;-71
2022/06/05 07:32:50;;;;;;;11.07;6.82;;;20.30;59.80;;;;;;4744660;30;20043;-70
2022/06/05 07:35:16;;;;;;;10.05;6.95;;;20.70;38.50;;;;;;4749333;30;20024;-70
2022/06/05 07:37:41;;;;;;;11.38;7.03;;;20.40;43.00;;;;;;4751751;30;20476;-71
2022/06/05 07:40:08;;;;;;;10.98;6.43;;;20.60;25.30;;;;;;4753017;30;20036;-71
2022/06/05 07:42:36;;;;;;;10.60;7.00;;;20.90;10.10;;;;;;4760098;30;20059;-71
2022/06/05 07:45:02;;;;;;;11.68;6.93;;;20.70;19.70;;;;;;4758166;30;20033;-71
2022/06/05 07:47:28;;;;;;;12.20;7.35;;;20.20;17.70;;;;;;4770668;30;20477;-71
2022/06/05 07:49:53;;;;;;;8.73;6.53;;;20.30;19.90;;;;;;4770212;30;20039;-72
2022/06/05 07:55:04;;;;;;;13.10;7.20;;;20.00;31.70;;;;;;4765370;30;20116;-71
2022/06/05 07:57:29;;;;;;;9.85;5.85;;;19.80;59.20;;;;;;4769930;30;20036;-71
2022/06/05 07:59:55;;;;;;;13.27;6.95;;;19.70;52.70;;;;;;4757768;30;20032;-71
2022/06/05 08:02:23;;;;;;;9.57;6.07;;;19.60;66.00;;;;;;4769083;30;20500;-71
2022/06/05 08:04:51;;;;;;;10.85;7.00;;;19.70;50.50;;;;;;4753634;30;20047;-71
2022/06/05 08:07:20;;;;;;;9.45;7.03;;;20.40;30.80;;;;;;4769919;30;20038;-71
2022/06/05 08:09:46;;;;;;;12.30;7.32;;;20.20;37.20;;;;;;4757602;30;20040;-71
2022/06/05 08:12:15;;;;;;;11.35;7.32;;;20.20;30.00;;;;;;4770049;30;20050;-71
2022/06/05 08:14:42;;;;;;;8.93;5.93;;;20.20;27.10;;;;;;4770054;30;20490;-71
2022/06/05 08:17:11;;;;;;;10.45;7.03;;;20.60;18.20;;;;;;4770028;30;20146;-71
2022/06/05 08:19:38;;;;;;;9.77;7.38;;;20.40;15.90;;;;;;4767143;30;20032;-71
2022/06/05 08:22:04;;;;;;;10.82;7.72;;;20.80;4.80;;;;;;4769603;30;20109;-71
2022/06/05 08:24:29;;;;;;;11.52;6.78;;;21.50;2.90;;;;;;4769811;30;20074;-71
2022/06/05 08:26:55;;;;;;;9.98;7.20;;;21.70;1.00;;;;;;4765968;30;20125;-71
2022/06/05 08:29:21;;;;;;;13.05;7.93;;;21.80;1.00;;;;;;4765580;30;20050;-71
2022/06/05 08:31:48;;;;;;;10.45;6.47;;;21.80;1.00;;;;;;4769815;30;20035;-71
2022/06/05 08:34:14;;;;;;;11.13;6.20;;;21.50;1.00;;;;;;4769873;30;20036;-71
2022/06/05 08:36:41;;;;;;;13.75;6.75;;;21.30;3.40;;;;;;4769925;30;20059;-69
2022/06/05 08:42:06;;;;;;;13.00;7.18;;;20.80;16.90;;;;;;4760221;30;20086;-70
2022/06/05 08:44:42;;;;;;;9.27;6.82;;;21.20;4.50;;;;;;4767731;30;20024;-69
2022/06/05 08:47:11;;;;;;;11.02;6.97;;;21.10;4.40;;;;;;4765473;30;20020;-70
2022/06/05 08:49:46;;;;;;;9.85;6.00;;;21.30;1.00;;;;;;4769120;30;20036;-69
2022/06/05 08:52:38;;;;;;;10.23;7.53;;;21.10;1.30;;;;;;4769498;30;20028;-70
2022/06/05 08:55:11;;;;;;;9.30;6.50;;;21.00;10.80;;;;;;4758223;30;20035;-69
2022/06/05 08:57:42;;;;;;;13.27;7.65;;;20.80;19.40;;;;;;4769515;30;20051;-69
2022/06/05 09:00:23;;;;;;;9.48;7.65;;;21.20;10.60;;;;;;4758005;30;20024;-69
2022/06/05 09:02:56;;;;;;;9.20;6.90;;;21.80;1.00;;;;;;4769195;30;20046;-69
2022/06/05 09:05:34;;;;;;;11.02;7.40;;;21.70;8.60;;;;;;4767123;30;20101;-69
2022/06/05 09:08:08;;;;;;;10.60;7.75;;;22.60;1.00;;;;;;4763281;30;20127;-70
2022/06/05 09:10:42;;;;;;;9.30;6.82;;;22.20;1.00;;;;;;4769276;30;20040;-70
2022/06/05 09:13:30;;;;;;;9.90;7.57;;;22.50;1.00;;;;;;4765207;30;20035;-70
2022/06/05 09:16:02;;;;;;;7.55;6.10;;;23.00;1.00;;;;;;4751415;30;20040;-70
2022/06/05 09:18:37;;;;;;;11.05;7.45;;;22.80;1.00;;;;;;4764072;30;20032;-71
2022/06/05 09:21:08;;;;;;;8.88;6.03;;;23.10;1.00;;;;;;4756990;30;20042;-71
2022/06/05 09:23:40;;;;;;;12.70;7.25;;;23.10;1.00;;;;;;4769245;30;20039;-71
2022/06/05 09:26:12;;;;;;;9.52;7.57;;;23.10;1.00;;;;;;4769354;30;20075;-71
2022/06/05 09:29:03;;;;;;;10.73;6.35;;;23.30;1.00;;;;;;4767935;30;20430;-71
2022/06/05 09:31:52;;;;;;;11.13;7.50;;;23.10;1.00;;;;;;4757977;30;20775;-71
2022/06/05 09:34:40;;;;;;;7.95;5.22;;;23.40;1.00;;;;;;4750520;30;20358;-69
2022/06/05 09:37:19;;;;;;;9.00;7.20;;;23.60;1.00;;;;;;4758540;30;20204;-70
2022/06/05 09:39:53;;;;;;;8.57;6.97;;;23.00;1.00;;;;;;4763554;30;20417;-70
2022/06/05 09:42:38;;;;;;;8.82;7.68;;;22.80;1.00;;;;;;4763735;30;20056;-70
2022/06/05 09:45:25;;;;;;;7.53;5.72;;;22.60;1.00;;;;;;4766569;30;20035;-70
2022/06/05 09:48:15;;;;;;;11.95;7.18;;;22.20;1.00;;;;;;4761437;30;20520;-70
2022/06/05 09:50:41;;;;;;;9.15;6.70;;;22.00;1.00;;;;;;4766240;30;20665;-69
2022/06/05 09:53:16;;;;;;;8.50;6.47;;;22.00;1.00;;;;;;4768848;30;20207;-70
2022/06/05 09:56:00;;;;;;;9.40;6.70;;;21.70;1.00;;;;;;4764609;30;20082;-69
2022/06/05 09:58:27;;;;;;;8.18;6.63;;;21.50;1.00;;;;;;4759333;30;20478;-71
2022/06/05 10:00:56;;;;;;;9.88;7.28;;;21.50;1.00;;;;;;4768710;30;20509;-70
2022/06/05 10:03:32;;;;;;;7.63;5.75;;;21.50;1.00;;;;;;4768126;30;20054;-70
2022/06/05 10:06:25;;;;;;;8.95;7.07;;;21.40;1.00;;;;;;4765040;30;20032;-70
2022/06/05 10:09:19;;;;;;;10.15;7.93;;;21.50;1.00;;;;;;4760859;30;20040;-70
2022/06/05 10:11:48;;;;;;;10.10;8.30;;;21.50;1.50;;;;;;4762848;30;20040;-69
2022/06/05 10:14:38;;;;;;;10.52;7.85;;;21.50;7.10;;;;;;4751062;30;20028;-70
2022/06/05 10:17:31;;;;;;;10.02;7.78;;;21.60;5.90;;;;;;4764307;30;20024;-70
2022/06/05 10:20:27;;;;;;;8.60;6.00;;;21.40;2.50;;;;;;4760309;30;20063;-70
2022/06/05 10:23:01;;;;;;;8.45;6.78;;;21.50;4.40;;;;;;4767059;30;20043;-70
2022/06/05 10:25:35;;;;;;;10.23;8.48;;;21.40;5.10;;;;;;4766158;30;20039;-70
2022/06/05 10:28:15;;;;;;;10.82;7.03;;;21.50;15.50;;;;;;4764498;30;20481;-70
2022/06/05 10:31:01;;;;;;;;;;;21.40;1.00;;;;;;4769121;30;20135;-70
2022/06/05 10:33:41;;;;;;;9.30;6.60;;;21.50;1.00;;;;;;4771559;30;19967;-70
2022/06/05 10:36:15;;;;;;;9.27;7.70;;;21.90;1.00;;;;;;4765690;30;20039;-70
2022/06/05 10:39:03;;;;;;;9.95;7.50;;;22.00;3.40;;;;;;4761278;30;20029;-70
2022/06/05 10:41:55;;;;;;;10.10;7.90;;;22.00;4.20;;;;;;4762849;30;20024;-71
2022/06/05 10:44:32;;;;;;;9.15;5.35;;;21.90;10.90;;;;;;4732103;30;20053;-71
2022/06/05 10:47:12;;;;;;;9.85;8.23;;;21.70;1.00;;;;;;4727709;30;20032;-71
2022/06/05 10:49:44;;;;;;;;;;;21.80;1.00;;;;;;4727696;30;20460;-71
2022/06/05 10:52:45;;;;;;;10.50;8.35;;;21.60;1.00;;;;;;4736413;30;20006;-71
2022/06/05 10:55:35;;;;;;;10.95;8.35;;;22.00;1.90;;;;;;4720131;30;20063;-71
2022/06/05 10:58:19;;;;;;;9.48;7.32;;;22.10;1.00;;;;;;4730329;30;20579;-71
2022/06/05 11:00:50;;;;;;;8.80;7.30;;;21.90;1.00;;;;;;4736154;30;20401;-71
2022/06/05 11:03:50;;;;;;;10.27;7.93;;;21.80;1.00;;;;;;4736217;30;20112;-70
2022/06/05 11:06:44;;;;;;;11.07;7.93;;;21.90;1.00;;;;;;4736056;30;20065;-70
2022/06/05 11:09:37;;;;;;;8.05;7.25;;;22.20;1.00;;;;;;4730695;30;20040;-70
2022/06/05 11:15:17;;;;;;;10.75;7.88;;;22.10;1.00;;;;;;4730681;30;20545;-70
2022/06/05 11:18:02;;;;;;;8.95;7.70;;;22.00;1.00;;;;;;4745351;30;20059;-70
2022/06/05 11:20:28;;;;;;;7.93;7.10;;;22.20;1.00;;;;;;4735879;30;20037;-70
2022/06/05 11:23:13;;;;;;;9.10;8.15;;;22.40;4.20;;;;;;4729278;30;20040;-71
2022/06/05 11:25:59;;;;;;;8.70;6.18;;;22.20;1.00;;;;;;4735565;30;20546;-70
2022/06/05 11:29:04;;;;;;;8.15;6.63;;;22.20;1.00;;;;;;4730749;30;20028;-70
2022/06/05 11:31:42;;;;;;;10.10;7.40;;;22.20;1.00;;;;;;4712741;30;20087;-70
2022/06/05 11:34:19;;;;;;;10.27;7.75;;;22.20;3.50;;;;;;4735395;30;20033;-70
2022/06/05 11:36:53;;;;;;;10.07;6.88;;;22.30;1.00;;;;;;4735372;30;20116;-70
2022/06/05 11:39:45;;;;;;;8.65;6.95;;;22.20;3.00;;;;;;4727198;30;20038;-70
2022/06/05 11:42:29;;;;;;;10.80;7.30;;;21.90;3.80;;;;;;4738230;30;20029;-70
2022/06/05 11:45:25;;;;;;;6.57;5.22;;;22.10;8.00;;;;;;4768779;30;20089;-71
2022/06/05 11:47:53;;;;;;;8.52;6.63;;;22.30;6.30;;;;;;4768993;30;20483;-70
2022/06/05 11:50:45;;;;;;;8.07;7.20;;;22.20;12.10;;;;;;4760434;30;20040;-71
2022/06/05 11:53:38;;;;;;;9.00;7.13;;;22.30;6.50;;;;;;4769944;30;20032;-71
2022/06/05 11:56:15;;;;;;;11.27;7.35;;;22.30;1.00;;;;;;4769994;30;20115;-70
2022/06/05 11:58:54;;;;;;;8.48;5.93;;;22.70;1.00;;;;;;4766011;30;20047;-70
2022/06/05 12:01:26;;;;;;;7.85;6.68;;;22.50;1.00;;;;;;4767320;30;20477;-70
2022/06/05 12:04:25;;;;;;;9.30;7.93;;;22.90;1.00;;;;;;4763401;30;20058;-70
2022/06/05 12:06:56;;;;;;;11.43;7.43;;;23.00;1.00;;;;;;4761181;30;20035;-70
2022/06/05 12:09:28;;;;;;;9.45;6.68;;;23.10;1.00;;;;;;4768519;30;20134;-70
2022/06/05 12:12:13;;;;;;;9.27;7.25;;;23.20;1.00;;;;;;4769537;30;20039;-70
2022/06/05 12:14:59;;;;;;;7.97;7.18;;;22.90;1.00;;;;;;4770113;30;20627;-70
2022/06/05 12:17:50;;;;;;;7.65;6.20;;;23.20;1.00;;;;;;4756914;30;20429;-70
2022/06/05 12:20:18;;;;;;;10.70;7.53;;;22.90;1.00;;;;;;4767161;30;20035;-71
2022/06/05 12:23:15;;;;;;;7.72;6.63;;;23.10;1.00;;;;;;4769577;30;20028;-71
2022/06/05 12:25:52;;;;;;;7.78;6.97;;;22.90;1.00;;;;;;4745918;30;20119;-70
2022/06/05 12:28:41;;;;;;;6.25;5.65;;;22.90;1.00;;;;;;4768821;30;20453;-71
2022/06/05 12:31:23;;;;;;;7.47;6.78;;;22.90;1.00;;;;;;4769917;30;20062;-70
2022/06/05 12:34:09;;;;;;;7.18;6.40;;;22.70;1.00;;;;;;4756903;30;20062;-70
2022/06/05 12:36:44;;;;;;;8.98;7.00;;;23.00;1.00;;;;;;4766899;30;20028;-70
2022/06/05 12:39:22;;;;;;;11.70;8.15;;;22.80;6.40;;;;;;4762293;30;20031;-71
2022/06/05 12:42:08;;;;;;;11.07;8.00;;;22.80;30.30;;;;;;4762374;30;20034;-70
2022/06/05 12:44:42;;;;;;;13.25;9.57;;;22.80;37.40;;;;;;4727931;30;20049;-70
2022/06/05 12:47:19;;;;;;;11.57;8.00;;;23.10;35.30;;;;;;4734556;30;20033;-70
2022/06/05 12:49:53;;;;;;;10.25;8.27;;;22.90;42.40;;;;;;4734028;30;20041;-70
2022/06/05 12:52:25;;;;;;;9.80;8.48;;;23.00;42.50;;;;;;4729821;30;20037;-70
2022/06/05 12:55:12;;;;;;;11.05;8.85;;;23.00;39.70;;;;;;4729129;30;20386;-70
2022/06/05 12:58:16;;;;;;;14.00;9.30;;;22.90;54.70;;;;;;4729751;30;20131;-70
2022/06/05 13:00:50;;;;;;;14.10;8.63;;;22.70;56.40;;;;;;4733649;30;20485;-69
2022/06/05 13:03:30;;;;;;;12.70;8.93;;;22.70;64.00;;;;;;4726358;30;20025;-70
2022/06/05 13:06:02;;;;;;;11.52;7.80;;;22.80;74.30;;;;;;4721910;30;20033;-70
2022/06/05 13:08:31;;;;;;;13.30;8.13;;;22.70;70.50;;;;;;4729640;30;20057;-70
2022/06/05 13:11:13;;;;;;;14.63;9.40;;;22.60;77.20;;;;;;4732274;30;20033;-70
2022/06/05 13:13:45;;;;;;;9.20;6.68;;;22.60;76.60;;;;;;4726746;30;20040;-70
2022/06/05 13:16:18;;;;;;;9.95;7.70;;;22.70;68.90;;;;;;4733938;30;20090;-70
2022/06/05 13:18:47;;;;;;;10.40;6.97;;;22.80;56.70;;;;;;4726761;30;20033;-70
2022/06/05 13:21:32;;;;;;;11.90;9.60;;;22.80;67.90;;;;;;4733978;30;20087;-70
2022/06/05 13:24:17;;;;;;;9.55;5.95;;;23.10;60.70;;;;;;4731588;30;20029;-70
2022/06/05 13:27:11;;;;;;;8.10;5.93;;;23.10;62.40;;;;;;4732092;30;20032;-70
2022/06/05 13:30:06;;;;;;;12.93;9.00;;;23.00;53.60;;;;;;4733331;30;20036;-70
2022/06/05 13:32:47;;;;;;;12.23;9.27;;;22.60;74.80;;;;;;4722101;30;20041;-70